East Point, Kentucky
Current Conditions -  °F | °C
As of 4:15 AM on Monday 24 Nov 2014 (Local Time) from KSJS Reporting Station
Broken Clouds Broken Clouds  
Wind Chill: 64°   Ceiling: 6000
Heat Index: 64°   Visibility: 10mi
Dew Point: 52°   Wind: 14mph
Humidity: 66%   Direction: 210°SSW
Pressure: 29.51"   Gusts: 22mph
Location:  37.75°N, 82.79°W
Report Text: KSJS 240915Z AUTO 21012G19KT 10SM BKN060 18/11 A2951 RMK AO2 T01770112
Loading
Personal Weather Stations






























Interactive Weather Map New forecast layout! Learn more

10-Day Weather Forecast

Advertisements
Track Severe Weather on mobile